createdAt,value
2018-03-27T00:00:54.923Z,97811.81
2018-03-27T00:03:23.209Z,97807.55
2018-03-27T00:05:51.539Z,97801.86
2018-03-27T00:08:20.577Z,97802.25
2018-03-27T00:10:48.836Z,97808.64
2018-03-27T00:13:17.861Z,97806.13
2018-03-27T00:15:46.145Z,97808.75
2018-03-27T00:18:15.212Z,97807.27
2018-03-27T00:20:43.482Z,97810.52
2018-03-27T00:23:11.752Z,97816.20
2018-03-27T00:25:40.033Z,97814.08
2018-03-27T00:28:26.164Z,97815.31
2018-03-27T00:31:12.076Z,97817.24
2018-03-27T00:33:58.220Z,97815.52
2018-03-27T00:36:45.121Z,97823.63
2018-03-27T00:39:31.796Z,97820.19
2018-03-27T00:45:03.223Z,97821.59
2018-03-27T00:47:31.488Z,97831.81
2018-03-27T00:49:59.793Z,97825.16
2018-03-27T00:52:28.052Z,97825.97
2018-03-27T00:54:57.129Z,97828.19
2018-03-27T00:57:26.368Z,97828.29
2018-03-27T00:59:55.427Z,97832.05
2018-03-27T01:02:23.747Z,97830.61
2018-03-27T01:04:52.025Z,97826.48
2018-03-27T01:07:20.293Z,97822.81
2018-03-27T01:09:48.598Z,97821.11
2018-03-27T01:12:16.852Z,97821.72
2018-03-27T01:14:45.133Z,97823.84
2018-03-27T01:17:13.427Z,97816.55
2018-03-27T01:19:41.742Z,97816.03
2018-03-27T01:22:10.010Z,97814.61
2018-03-27T01:24:38.278Z,97813.42
2018-03-27T01:27:06.576Z,97815.63
2018-03-27T01:29:35.596Z,97808.23
2018-03-27T01:32:03.872Z,97812.29
2018-03-27T01:34:32.133Z,97812.87
2018-03-27T01:37:00.413Z,97809.34
2018-03-27T01:39:28.685Z,97812.05
2018-03-27T01:41:56.984Z,97813.17
2018-03-27T01:44:25.332Z,97814.20
2018-03-27T01:46:54.457Z,97813.89
2018-03-27T01:49:23.491Z,97810.22
2018-03-27T01:51:51.822Z,97806.59
2018-03-27T01:54:20.080Z,97807.12
2018-03-27T01:56:48.348Z,97807.00
2018-03-27T01:59:16.608Z,97808.41
2018-03-27T02:01:44.923Z,97808.50
2018-03-27T02:04:13.204Z,97806.16
2018-03-27T02:06:42.404Z,97807.38
2018-03-27T02:09:10.665Z,97806.47
2018-03-27T02:11:44.461Z,97807.59
2018-03-27T02:14:18.187Z,97803.14
2018-03-27T02:16:52.857Z,97806.78
2018-03-27T02:19:26.560Z,97801.30
2018-03-27T02:21:54.212Z,97805.74
2018-03-27T02:24:24.067Z,97803.98
2018-03-27T02:26:52.349Z,97803.07
2018-03-27T02:29:20.639Z,97812.46
2018-03-27T02:31:48.897Z,97812.13
2018-03-27T02:34:17.194Z,97817.12
2018-03-27T02:36:46.229Z,97827.59
2018-03-27T02:39:14.537Z,97821.83
2018-03-27T02:41:42.842Z,97817.38
2018-03-27T02:44:11.113Z,97817.89
2018-03-27T02:46:39.379Z,97817.73
2018-03-27T02:49:07.656Z,97813.48
2018-03-27T02:51:36.679Z,97823.06
2018-03-27T02:54:04.965Z,97816.78
2018-03-27T02:56:33.236Z,97816.95
2018-03-27T02:59:02.283Z,97819.08
2018-03-27T03:01:30.553Z,97818.81
2018-03-27T03:03:58.853Z,97815.06
2018-03-27T03:06:27.133Z,97813.90
2018-03-27T03:08:55.461Z,97812.56
2018-03-27T03:11:23.731Z,97810.84
2018-03-27T03:13:52.054Z,97814.84
2018-03-27T03:16:20.307Z,97815.58
2018-03-27T03:18:48.581Z,97809.00
2018-03-27T03:21:16.840Z,97810.00
2018-03-27T03:23:45.128Z,97817.11
2018-03-27T03:26:13.452Z,97815.27
2018-03-27T03:28:41.740Z,97812.03
2018-03-27T03:31:10.162Z,97810.63
2018-03-27T03:33:39.203Z,97810.76
2018-03-27T03:36:07.491Z,97810.10
2018-03-27T03:38:35.745Z,97811.41
2018-03-27T03:41:04.028Z,97815.23
2018-03-27T03:43:32.293Z,97818.49
2018-03-27T03:46:00.571Z,97814.75
2018-03-27T03:48:29.612Z,97813.24
2018-03-27T03:50:57.930Z,97803.57
2018-03-27T03:53:26.286Z,97811.93
2018-03-27T03:55:54.597Z,97806.84
2018-03-27T03:58:22.857Z,97807.69
2018-03-27T04:00:51.146Z,97813.05
2018-03-27T04:03:19.412Z,97811.94
2018-03-27T04:05:48.449Z,97815.98
2018-03-27T04:08:17.484Z,97813.19
2018-03-27T04:10:45.757Z,97809.02
2018-03-27T04:13:14.048Z,97810.23
2018-03-27T04:15:43.112Z,97809.85
2018-03-27T04:18:12.146Z,97800.23
2018-03-27T04:20:40.530Z,97808.75
2018-03-27T04:23:08.908Z,97800.55
2018-03-27T04:25:37.994Z,97804.19
2018-03-27T04:28:07.030Z,97796.62
2018-03-27T04:30:36.074Z,97796.55
2018-03-27T04:33:04.320Z,97796.95
2018-03-27T04:35:33.377Z,97792.34
2018-03-27T04:38:01.640Z,97800.25
2018-03-27T04:40:29.931Z,97799.64
2018-03-27T04:42:58.265Z,97796.38
2018-03-27T04:45:26.570Z,97802.62
2018-03-27T04:47:55.642Z,97797.11
2018-03-27T04:50:23.944Z,97799.39
2018-03-27T04:52:52.210Z,97796.27
2018-03-27T04:55:20.482Z,97792.38
2018-03-27T04:57:48.749Z,97790.65
2018-03-27T05:00:17.798Z,97803.53
2018-03-27T05:02:46.055Z,97797.41
2018-03-27T05:05:14.448Z,97795.89
2018-03-27T05:07:42.768Z,97793.52
2018-03-27T05:10:11.044Z,97792.03
2018-03-27T05:12:39.309Z,97782.92
2018-03-27T05:15:07.568Z,97791.31
2018-03-27T05:17:35.841Z,97790.97
2018-03-27T05:20:04.092Z,97793.45
2018-03-27T05:22:32.352Z,97799.92
2018-03-27T05:25:01.383Z,97807.05
2018-03-27T05:27:30.805Z,97806.59
2018-03-27T05:29:59.096Z,97806.99
2018-03-27T05:32:27.404Z,97806.31
2018-03-27T05:34:55.715Z,97808.64
2018-03-27T05:37:24.863Z,97811.19
2018-03-27T05:39:53.126Z,97814.94
2018-03-27T05:42:21.446Z,97814.55
2018-03-27T05:44:49.700Z,97809.30
2018-03-27T05:47:17.980Z,97811.48
2018-03-27T05:49:46.249Z,97813.98
2018-03-27T05:52:14.745Z,97810.17
2018-03-27T05:54:43.014Z,97816.84
2018-03-27T05:57:11.301Z,97811.45
2018-03-27T05:59:39.616Z,97804.66
2018-03-27T06:02:07.897Z,97807.97
2018-03-27T06:04:36.164Z,97811.54
2018-03-27T06:07:04.467Z,97815.02
2018-03-27T06:09:32.726Z,97808.81
2018-03-27T06:12:01.764Z,97813.41
2018-03-27T06:14:30.036Z,97810.24
2018-03-27T06:16:58.427Z,97819.16
2018-03-27T06:19:27.494Z,97820.49
2018-03-27T06:21:55.773Z,97822.41
2018-03-27T06:24:24.148Z,97823.12
2018-03-27T06:26:52.424Z,97816.73
2018-03-27T06:29:20.705Z,97816.64
2018-03-27T06:31:48.990Z,97826.55
2018-03-27T06:34:17.250Z,97810.63
2018-03-27T06:36:46.380Z,97808.78
2018-03-27T06:39:14.675Z,97811.83
2018-03-27T06:41:42.996Z,97808.27
2018-03-27T06:44:12.021Z,97804.83
2018-03-27T06:46:40.296Z,97800.61
2018-03-27T06:49:08.567Z,97794.48
2018-03-27T06:51:36.824Z,97794.98
2018-03-27T06:54:05.866Z,97793.02
2018-03-27T06:56:34.132Z,97786.98
2018-03-27T06:59:02.445Z,97797.84
2018-03-27T07:01:30.764Z,97793.70
2018-03-27T07:03:59.070Z,97792.55
2018-03-27T07:06:28.108Z,97800.55
2018-03-27T07:08:56.461Z,97810.00
2018-03-27T07:11:24.787Z,97804.09
2018-03-27T07:13:53.083Z,97808.52
2018-03-27T07:16:21.385Z,97815.05
2018-03-27T07:18:49.692Z,97803.91
2018-03-27T07:21:18.012Z,97798.16
2018-03-27T07:23:46.231Z,97804.73
2018-03-27T07:26:14.537Z,97805.73
2018-03-27T07:28:42.851Z,97802.32
2018-03-27T07:31:11.114Z,97803.00
2018-03-27T07:33:39.408Z,97796.24
2018-03-27T07:36:07.668Z,97807.56
2018-03-27T07:38:36.720Z,97802.59
2018-03-27T07:41:05.249Z,97801.00
2018-03-27T07:43:33.573Z,97804.55
2018-03-27T07:46:01.837Z,97801.22
2018-03-27T07:48:30.224Z,97812.00
2018-03-27T07:50:58.517Z,97809.59
2018-03-27T07:53:26.884Z,97808.17
2018-03-27T07:55:56.155Z,97807.70
2018-03-27T07:58:24.557Z,97812.63
2018-03-27T08:00:52.833Z,97804.56
2018-03-27T08:03:21.133Z,97804.14
2018-03-27T08:05:49.388Z,97805.22
2018-03-27T08:08:18.468Z,97811.33
2018-03-27T08:10:46.895Z,97809.89
2018-03-27T08:13:15.257Z,97806.61
2018-03-27T08:15:43.544Z,97808.90
2018-03-27T08:18:11.820Z,97799.25
2018-03-27T08:20:40.214Z,97809.48
2018-03-27T08:23:08.474Z,97815.77
2018-03-27T08:25:36.752Z,97807.69
2018-03-27T08:28:04.999Z,97799.63
2018-03-27T08:30:33.276Z,97800.89
2018-03-27T08:33:01.565Z,97805.08
2018-03-27T08:35:29.877Z,97794.69
2018-03-27T08:37:58.208Z,97799.65
2018-03-27T08:40:26.591Z,97792.84
2018-03-27T08:42:54.948Z,97791.61
2018-03-27T08:45:24.080Z,97792.56
2018-03-27T08:47:52.368Z,97793.70
2018-03-27T08:50:21.412Z,97791.81
2018-03-27T08:52:49.707Z,97787.45
2018-03-27T08:55:17.991Z,97785.34
2018-03-27T08:57:46.265Z,97791.44
2018-03-27T09:00:14.568Z,97794.12
2018-03-27T09:02:42.853Z,97788.88
2018-03-27T09:05:11.138Z,97789.30
2018-03-27T09:07:39.484Z,97788.05
2018-03-27T09:10:08.542Z,97790.17
2018-03-27T09:12:36.805Z,97795.09
2018-03-27T09:15:05.928Z,97791.81
2018-03-27T09:17:34.193Z,97788.68
2018-03-27T09:20:03.268Z,97788.20
2018-03-27T09:22:31.536Z,97787.89
2018-03-27T09:24:59.859Z,97775.46
2018-03-27T09:27:28.168Z,97779.24
2018-03-27T09:29:57.285Z,97781.05
2018-03-27T09:32:26.480Z,97771.88
2018-03-27T09:34:55.597Z,97768.09
2018-03-27T09:37:24.041Z,97763.03
2018-03-27T09:39:52.327Z,97753.27
2018-03-27T09:42:20.593Z,97752.48
2018-03-27T09:44:48.869Z,97747.08
2018-03-27T09:47:17.210Z,97744.67
2018-03-27T09:49:46.282Z,97743.55
2018-03-27T09:52:14.648Z,97746.70
2018-03-27T09:54:43.680Z,97737.22
2018-03-27T09:57:12.075Z,97742.48
2018-03-27T09:59:40.354Z,97733.34
2018-03-27T10:02:09.396Z,97731.54
2018-03-27T10:04:37.682Z,97733.35
2018-03-27T10:07:06.014Z,97730.52
2018-03-27T10:09:35.424Z,97734.94
2018-03-27T10:12:03.707Z,97723.30
2018-03-27T10:14:31.956Z,97722.86
2018-03-27T10:17:00.257Z,97721.51
2018-03-27T10:19:28.556Z,97716.95
2018-03-27T10:21:56.928Z,97710.37
2018-03-27T10:24:26.012Z,97703.81
2018-03-27T10:26:54.305Z,97702.61
2018-03-27T10:29:22.579Z,97686.05
2018-03-27T10:31:50.884Z,97689.75
2018-03-27T10:34:19.171Z,97689.14
2018-03-27T10:36:47.561Z,97685.19
2018-03-27T10:39:15.860Z,97686.02
2018-03-27T10:41:44.947Z,97677.72
2018-03-27T10:44:14.075Z,97673.83
2018-03-27T10:46:42.424Z,97678.65
2018-03-27T10:49:10.683Z,97679.33
2018-03-27T10:51:39.000Z,97675.34
2018-03-27T10:54:08.036Z,97681.38
2018-03-27T10:56:37.084Z,97675.02
2018-03-27T10:59:05.341Z,97661.39
2018-03-27T11:01:33.617Z,97659.86
2018-03-27T11:04:03.772Z,97662.38
2018-03-27T11:06:32.056Z,97657.55
2018-03-27T11:09:00.408Z,97649.14
2018-03-27T11:11:29.509Z,97657.14
2018-03-27T11:13:57.828Z,97649.61
2018-03-27T11:16:26.942Z,97652.38
2018-03-27T11:18:55.264Z,97639.81
2018-03-27T11:21:23.602Z,97638.10
2018-03-27T11:23:51.903Z,97638.45
2018-03-27T11:26:20.936Z,97632.03
2018-03-27T11:28:49.225Z,97630.91
2018-03-27T11:31:17.493Z,97626.22
2018-03-27T11:33:46.552Z,97630.79
2018-03-27T11:36:14.864Z,97624.40
2018-03-27T11:38:43.210Z,97622.56
2018-03-27T11:41:11.485Z,97617.28
2018-03-27T11:43:39.776Z,97606.77
2018-03-27T11:46:09.045Z,97604.84
2018-03-27T11:48:37.344Z,97605.20
2018-03-27T11:51:05.600Z,97605.42
2018-03-27T11:53:34.640Z,97593.62
2018-03-27T11:56:02.920Z,97603.40
2018-03-27T11:58:31.997Z,97590.31
2018-03-27T12:01:00.289Z,97587.34
2018-03-27T12:03:29.361Z,97590.75
2018-03-27T12:05:58.530Z,97587.66
2018-03-27T12:08:26.991Z,97595.25
2018-03-27T12:10:55.339Z,97578.29
2018-03-27T12:13:23.689Z,97575.24
2018-03-27T12:15:51.942Z,97571.13
2018-03-27T12:18:20.265Z,97555.72
2018-03-27T12:20:49.311Z,97554.41
2018-03-27T12:23:17.604Z,97558.83
2018-03-27T12:25:45.885Z,97544.44
2018-03-27T12:28:14.953Z,97529.83
2018-03-27T12:30:44.004Z,97528.00
2018-03-27T12:33:12.285Z,97520.86
2018-03-27T12:35:40.548Z,97523.69
2018-03-27T12:38:08.856Z,97520.42
2018-03-27T12:40:37.189Z,97515.47
2018-03-27T12:43:06.233Z,97516.13
2018-03-27T12:45:35.269Z,97497.19
2018-03-27T12:48:03.540Z,97500.72
2018-03-27T12:50:31.817Z,97497.00
2018-03-27T12:53:00.121Z,97496.08
2018-03-27T12:55:29.229Z,97488.55
2018-03-27T12:57:57.582Z,97484.69
2018-03-27T13:00:25.922Z,97479.45
2018-03-27T13:02:55.058Z,97469.81
2018-03-27T13:05:23.382Z,97468.02
2018-03-27T13:07:51.682Z,97459.97
2018-03-27T13:10:20.031Z,97451.96
2018-03-27T13:12:48.352Z,97453.70
2018-03-27T13:15:16.653Z,97444.58
2018-03-27T13:17:45.010Z,97443.39
2018-03-27T13:20:13.264Z,97433.39
2018-03-27T13:22:42.332Z,97432.17
2018-03-27T13:25:10.615Z,97450.07
2018-03-27T13:27:38.882Z,97417.62
2018-03-27T13:30:07.177Z,97421.33
2018-03-27T13:32:35.452Z,97416.27
2018-03-27T13:35:04.509Z,97412.20
2018-03-27T13:37:32.784Z,97417.84
2018-03-27T13:40:01.088Z,97410.77
2018-03-27T13:42:29.377Z,97397.66
2018-03-27T13:44:57.768Z,97401.18
2018-03-27T13:47:26.181Z,97398.19
2018-03-27T13:49:54.673Z,97391.78
2018-03-27T13:52:23.099Z,97387.94
2018-03-27T13:54:51.398Z,97396.25
2018-03-27T13:57:19.657Z,97387.16
2018-03-27T13:59:47.955Z,97377.45
2018-03-27T14:02:16.520Z,97378.78
2018-03-27T14:04:44.838Z,97377.23
2018-03-27T14:07:13.900Z,97375.50
2018-03-27T14:09:42.311Z,97366.50
2018-03-27T14:12:10.545Z,97359.38
2018-03-27T14:14:39.577Z,97359.86
2018-03-27T14:17:07.836Z,97363.78
2018-03-27T14:19:37.032Z,97355.78
2018-03-27T14:22:05.262Z,97351.81
2018-03-27T14:24:33.535Z,97357.03
2018-03-27T14:27:01.796Z,97352.37
2018-03-27T14:29:30.200Z,97344.75
2018-03-27T14:31:58.676Z,97337.23
2018-03-27T14:34:27.085Z,97338.84
2018-03-27T14:36:55.563Z,97337.52
2018-03-27T14:39:23.929Z,97339.05
2018-03-27T14:41:53.050Z,97334.17
2018-03-27T14:44:22.819Z,97335.69
2018-03-27T14:46:51.085Z,97335.18
2018-03-27T14:49:20.116Z,97327.17
2018-03-27T14:51:48.400Z,97324.27
2018-03-27T14:54:17.443Z,97322.20
2018-03-27T14:56:45.760Z,97321.44
2018-03-27T14:59:14.050Z,97309.73
2018-03-27T15:01:42.340Z,97304.88
2018-03-27T15:04:10.692Z,97309.06
2018-03-27T15:06:39.061Z,97296.13
2018-03-27T15:09:08.190Z,97294.92
2018-03-27T15:11:36.497Z,97295.19
2018-03-27T15:14:04.779Z,97290.40
2018-03-27T15:16:33.053Z,97276.52
2018-03-27T15:19:01.329Z,97274.44
2018-03-27T15:21:30.475Z,97284.05
2018-03-27T15:23:58.893Z,97277.91
2018-03-27T15:26:27.313Z,97269.90
2018-03-27T15:28:56.133Z,97272.98
2018-03-27T15:31:24.586Z,97263.06
2018-03-27T15:33:53.682Z,97257.69
2018-03-27T15:36:22.743Z,97253.83
2018-03-27T15:38:51.011Z,97255.08
2018-03-27T15:41:20.853Z,97257.09
2018-03-27T15:43:49.116Z,97250.09
2018-03-27T15:46:18.237Z,97245.48
2018-03-27T15:48:47.362Z,97243.77
2018-03-27T15:51:15.784Z,97242.94
2018-03-27T15:53:44.846Z,97240.94
2018-03-27T15:56:13.938Z,97231.42
2018-03-27T15:58:43.606Z,97233.45
2018-03-27T16:01:12.006Z,97234.56
2018-03-27T16:03:40.291Z,97234.30
2018-03-27T16:06:09.322Z,97235.11
2018-03-27T16:08:37.626Z,97234.17
2018-03-27T16:11:05.902Z,97233.91
2018-03-27T16:13:34.958Z,97223.34
2018-03-27T16:16:04.020Z,97226.13
2018-03-27T16:18:32.403Z,97217.06
2018-03-27T16:21:00.723Z,97208.95
2018-03-27T16:23:29.895Z,97211.05
2018-03-27T16:25:58.288Z,97211.87
2018-03-27T16:28:26.645Z,97209.70
2018-03-27T16:30:55.306Z,97211.71
2018-03-27T16:33:23.642Z,97209.56
2018-03-27T16:35:52.036Z,97210.36
2018-03-27T16:38:20.319Z,97207.83
2018-03-27T16:40:49.353Z,97214.47
2018-03-27T16:43:17.666Z,97204.34
2018-03-27T16:45:46.736Z,97198.92
2018-03-27T16:48:15.085Z,97203.81
2018-03-27T16:50:43.409Z,97199.03
2018-03-27T16:53:12.467Z,97208.36
2018-03-27T16:55:40.756Z,97208.23
2018-03-27T16:58:09.031Z,97216.23
2018-03-27T17:00:38.098Z,97213.92
2018-03-27T17:03:06.383Z,97221.66
2018-03-27T17:05:34.655Z,97205.77
2018-03-27T17:08:03.749Z,97204.56
2018-03-27T17:10:32.018Z,97199.92
2018-03-27T17:13:00.311Z,97198.52
2018-03-27T17:15:28.662Z,97198.24
2018-03-27T17:17:57.127Z,97196.11
2018-03-27T17:20:26.215Z,97201.38
2018-03-27T17:22:54.528Z,97201.88
2018-03-27T17:25:23.614Z,97197.80
2018-03-27T17:27:51.875Z,97204.63
2018-03-27T17:30:20.184Z,97203.64
2018-03-27T17:32:49.991Z,97202.06
2018-03-27T17:35:19.197Z,97200.02
2018-03-27T17:37:48.437Z,97213.72
2018-03-27T17:40:16.783Z,97218.75
2018-03-27T17:42:45.048Z,97220.00
2018-03-27T17:45:14.103Z,97213.39
2018-03-27T17:47:42.337Z,97205.80
2018-03-27T17:50:11.381Z,97213.84
2018-03-27T17:52:39.680Z,97221.05
2018-03-27T17:55:07.962Z,97221.08
2018-03-27T17:57:36.218Z,97222.23
2018-03-27T18:00:05.269Z,97220.42
2018-03-27T18:02:33.538Z,97213.29
2018-03-27T18:05:01.920Z,97213.40
2018-03-27T18:07:30.233Z,97220.89
2018-03-27T18:09:58.562Z,97222.27
2018-03-27T18:12:26.873Z,97218.97
2018-03-27T18:14:56.370Z,97223.66
2018-03-27T18:17:24.731Z,97240.95
2018-03-27T18:19:53.047Z,97226.67
2018-03-27T18:22:21.330Z,97227.65
2018-03-27T18:24:49.661Z,97235.44
2018-03-27T18:27:18.695Z,97223.31
2018-03-27T18:29:47.023Z,97235.12
2018-03-27T18:32:15.298Z,97231.55
2018-03-27T18:34:43.576Z,97223.18
2018-03-27T18:37:11.825Z,97226.23
2018-03-27T18:39:43.651Z,97225.06
2018-03-27T18:42:12.005Z,97222.21
2018-03-27T18:44:40.314Z,97224.25
2018-03-27T18:47:08.866Z,97220.45
2018-03-27T18:49:37.875Z,97218.72
2018-03-27T18:52:06.924Z,97220.34
2018-03-27T18:54:35.173Z,97212.19
2018-03-27T18:57:04.246Z,97216.45
2018-03-27T18:59:32.530Z,97204.47
2018-03-27T19:02:00.849Z,97205.56
2018-03-27T19:04:29.923Z,97192.23
2018-03-27T19:06:58.247Z,97197.16
2018-03-27T19:09:26.552Z,97186.30
2018-03-27T19:11:54.971Z,97194.08
2018-03-27T19:14:23.264Z,97200.06
2018-03-27T19:16:52.267Z,97191.28
2018-03-27T19:19:20.529Z,97186.53
2018-03-27T19:21:48.951Z,97198.63
2018-03-27T19:24:17.205Z,97196.33
2018-03-27T19:26:46.268Z,97202.25
2018-03-27T19:29:14.603Z,97206.52
2018-03-27T19:31:42.945Z,97204.13
2018-03-27T19:34:11.228Z,97196.18
2018-03-27T19:36:39.507Z,97195.60
2018-03-27T19:39:07.759Z,97203.75
2018-03-27T19:41:36.816Z,97199.55
2018-03-27T19:44:05.853Z,97178.41
2018-03-27T19:46:34.120Z,97184.48
2018-03-27T19:49:02.380Z,97182.88
2018-03-27T19:51:30.662Z,97179.57
2018-03-27T19:53:58.965Z,97177.26
2018-03-27T19:56:27.292Z,97177.66
2018-03-27T19:58:55.606Z,97182.44
2018-03-27T20:01:24.706Z,97184.27
2018-03-27T20:03:52.990Z,97184.49
2018-03-27T20:06:22.034Z,97187.17
2018-03-27T20:08:50.453Z,97185.70
2018-03-27T20:11:18.737Z,97171.13
2018-03-27T20:13:47.074Z,97172.48
2018-03-27T20:16:15.459Z,97160.97
2018-03-27T20:18:43.753Z,97164.34
2018-03-27T20:21:12.797Z,97158.52
2018-03-27T20:23:41.084Z,97154.98
2018-03-27T20:26:10.121Z,97150.67
2018-03-27T20:28:38.451Z,97153.80
2018-03-27T20:31:06.749Z,97149.43
2018-03-27T20:33:35.876Z,97148.91
2018-03-27T20:36:04.155Z,97151.19
2018-03-27T20:38:33.224Z,97146.20
2018-03-27T20:41:01.480Z,97146.20
2018-03-27T20:43:29.833Z,97143.16
2018-03-27T20:45:58.179Z,97142.14
2018-03-27T20:48:26.552Z,97140.06
2018-03-27T20:50:54.878Z,97135.47
2018-03-27T20:53:23.160Z,97133.13
2018-03-27T20:55:52.272Z,97119.48
2018-03-27T20:58:20.565Z,97120.64
2018-03-27T21:00:50.413Z,97121.33
2018-03-27T21:03:18.751Z,97117.77
2018-03-27T21:05:47.160Z,97127.51
2018-03-27T21:08:15.585Z,97122.45
2018-03-27T21:10:44.669Z,97117.39
2018-03-27T21:13:13.013Z,97121.45
2018-03-27T21:15:42.036Z,97121.83
2018-03-27T21:18:10.326Z,97110.34
2018-03-27T21:20:39.942Z,97110.95
2018-03-27T21:23:08.237Z,97106.20
2018-03-27T21:25:36.528Z,97104.05
2018-03-27T21:28:04.799Z,97100.56
2018-03-27T21:30:34.565Z,97094.95
2018-03-27T21:33:03.582Z,97094.52
2018-03-27T21:35:32.613Z,97097.28
2018-03-27T21:38:00.963Z,97092.45
2018-03-27T21:40:29.389Z,97085.20
2018-03-27T21:42:57.688Z,97081.34
2018-03-27T21:45:26.082Z,97081.83
2018-03-27T21:47:55.260Z,97077.66
2018-03-27T21:50:23.563Z,97074.78
2018-03-27T21:52:51.909Z,97072.02
2018-03-27T21:55:20.174Z,97081.62
2018-03-27T21:57:49.198Z,97076.90
2018-03-27T22:00:17.473Z,97074.99
2018-03-27T22:02:46.574Z,97068.23
2018-03-27T22:05:15.654Z,97066.19
2018-03-27T22:07:43.907Z,97070.30
2018-03-27T22:10:12.178Z,97071.79
2018-03-27T22:12:40.451Z,97067.89
2018-03-27T22:15:09.472Z,97060.70
2018-03-27T22:17:37.787Z,97059.92
2018-03-27T22:20:06.097Z,97068.42
2018-03-27T22:22:34.356Z,97060.73
2018-03-27T22:25:02.627Z,97063.53
2018-03-27T22:27:31.924Z,97057.55
2018-03-27T22:30:01.053Z,97060.09
2018-03-27T22:32:30.080Z,97056.78
2018-03-27T22:34:58.452Z,97049.86
2018-03-27T22:37:27.641Z,97053.50
2018-03-27T22:39:56.080Z,97048.59
2018-03-27T22:42:24.591Z,97037.20
2018-03-27T22:44:52.951Z,97037.39
2018-03-27T22:47:21.300Z,97027.97
2018-03-27T22:49:49.567Z,97025.83
2018-03-27T22:52:17.839Z,97015.23
2018-03-27T22:54:46.098Z,97022.15
2018-03-27T22:57:14.376Z,97016.44
2018-03-27T22:59:42.663Z,97018.69
2018-03-27T23:02:11.758Z,97016.03
2018-03-27T23:04:40.175Z,97025.03
2018-03-27T23:07:09.871Z,97024.30
2018-03-27T23:09:38.097Z,97020.95
2018-03-27T23:12:06.381Z,97017.77
2018-03-27T23:14:34.640Z,97014.61
2018-03-27T23:17:03.788Z,97012.02
2018-03-27T23:19:32.067Z,97010.89
2018-03-27T23:22:00.396Z,97004.28
2018-03-27T23:24:29.707Z,97010.46
2018-03-27T23:26:58.043Z,97012.10
2018-03-27T23:29:26.460Z,97005.72
2018-03-27T23:31:55.570Z,97013.54
2018-03-27T23:34:23.858Z,96998.64
2018-03-27T23:36:52.207Z,96999.16
2018-03-27T23:39:21.237Z,96994.19
2018-03-27T23:41:50.282Z,96998.24
2018-03-27T23:44:18.547Z,97003.21
2018-03-27T23:46:46.816Z,97000.31
2018-03-27T23:49:15.842Z,97008.92
2018-03-27T23:51:44.138Z,97013.23
2018-03-27T23:54:12.481Z,96999.91
2018-03-27T23:56:40.838Z,97003.36
2018-03-27T23:59:09.071Z,97002.09
